Terminal Aerodrome Forecast
Issued by NWS

Home | Current Version | Previous Version | Text Only | Print | Product List | Glossary On
Versions: 1 2 3 4 5 6 7 8 9 10 11 12 13
603
FTUS46 KSGX 242332
TAFONT
TAF
KONT 242332Z 2500/2606 25012KT P6SM FEW250
     FM250500 VRB05KT P6SM SCT020
     FM251200 VRB05KT P6SM VCSH BKN015
     FM252100 25012KT P6SM VCSH BKN025
     FM260100 25010KT P6SM SCT100=

USA.gov is the U.S. government's official web portal to all federal, state and local government web resources and services.